sensor_id;sensor_type;location;lat;lon;timestamp;P1;durP1;ratioP1;P2;durP2;ratioP2
15055;SDS011;7626;42.674;23.284;2022-10-26T00:00:42;12.70;;;5.97;;
15055;SDS011;7626;42.674;23.284;2022-10-26T00:03:09;12.10;;;6.10;;
15055;SDS011;7626;42.674;23.284;2022-10-26T00:05:35;10.90;;;5.93;;
15055;SDS011;7626;42.674;23.284;2022-10-26T00:08:02;10.90;;;5.87;;
15055;SDS011;7626;42.674;23.284;2022-10-26T00:10:28;10.37;;;5.70;;
15055;SDS011;7626;42.674;23.284;2022-10-26T00:12:56;11.50;;;5.83;;
15055;SDS011;7626;42.674;23.284;2022-10-26T00:15:23;9.80;;;6.00;;
15055;SDS011;7626;42.674;23.284;2022-10-26T00:17:49;9.83;;;5.67;;
15055;SDS011;7626;42.674;23.284;2022-10-26T00:20:16;12.83;;;6.47;;
15055;SDS011;7626;42.674;23.284;2022-10-26T00:22:42;9.60;;;6.10;;
15055;SDS011;7626;42.674;23.284;2022-10-26T00:25:09;9.23;;;5.70;;
15055;SDS011;7626;42.674;23.284;2022-10-26T00:27:35;8.83;;;5.90;;
15055;SDS011;7626;42.674;23.284;2022-10-26T00:30:04;9.83;;;6.00;;
15055;SDS011;7626;42.674;23.284;2022-10-26T00:32:31;11.70;;;5.50;;
15055;SDS011;7626;42.674;23.284;2022-10-26T00:34:57;10.50;;;5.90;;
15055;SDS011;7626;42.674;23.284;2022-10-26T00:37:24;9.70;;;5.50;;
15055;SDS011;7626;42.674;23.284;2022-10-26T00:39:51;9.00;;;4.87;;
15055;SDS011;7626;42.674;23.284;2022-10-26T00:42:18;8.67;;;5.30;;
15055;SDS011;7626;42.674;23.284;2022-10-26T00:44:54;10.80;;;5.00;;
15055;SDS011;7626;42.674;23.284;2022-10-26T00:47:24;11.50;;;5.77;;
15055;SDS011;7626;42.674;23.284;2022-10-26T00:49:54;10.50;;;5.00;;
15055;SDS011;7626;42.674;23.284;2022-10-26T00:52:21;11.03;;;6.00;;
15055;SDS011;7626;42.674;23.284;2022-10-26T00:54:48;7.83;;;5.33;;
15055;SDS011;7626;42.674;23.284;2022-10-26T00:57:15;8.23;;;4.80;;
15055;SDS011;7626;42.674;23.284;2022-10-26T00:59:42;10.80;;;5.27;;
15055;SDS011;7626;42.674;23.284;2022-10-26T01:02:09;8.20;;;4.50;;
15055;SDS011;7626;42.674;23.284;2022-10-26T01:04:37;6.80;;;5.00;;
15055;SDS011;7626;42.674;23.284;2022-10-26T01:07:04;8.17;;;5.20;;
15055;SDS011;7626;42.674;23.284;2022-10-26T01:09:31;9.67;;;5.20;;
15055;SDS011;7626;42.674;23.284;2022-10-26T01:11:58;6.93;;;4.90;;
15055;SDS011;7626;42.674;23.284;2022-10-26T01:14:24;9.90;;;5.37;;
15055;SDS011;7626;42.674;23.284;2022-10-26T01:16:55;10.00;;;4.97;;
15055;SDS011;7626;42.674;23.284;2022-10-26T01:19:38;8.80;;;5.27;;
15055;SDS011;7626;42.674;23.284;2022-10-26T01:22:11;8.90;;;5.43;;
15055;SDS011;7626;42.674;23.284;2022-10-26T01:24:44;8.07;;;5.40;;
15055;SDS011;7626;42.674;23.284;2022-10-26T01:27:14;7.53;;;5.27;;
15055;SDS011;7626;42.674;23.284;2022-10-26T01:29:52;12.60;;;5.13;;
15055;SDS011;7626;42.674;23.284;2022-10-26T01:32:25;9.20;;;4.90;;
15055;SDS011;7626;42.674;23.284;2022-10-26T01:34:53;8.90;;;5.17;;
15055;SDS011;7626;42.674;23.284;2022-10-26T01:37:21;9.80;;;4.93;;
15055;SDS011;7626;42.674;23.284;2022-10-26T01:39:51;11.00;;;5.50;;
15055;SDS011;7626;42.674;23.284;2022-10-26T01:42:18;10.00;;;4.90;;
15055;SDS011;7626;42.674;23.284;2022-10-26T01:44:47;9.53;;;5.07;;
15055;SDS011;7626;42.674;23.284;2022-10-26T01:47:15;8.30;;;5.10;;
15055;SDS011;7626;42.674;23.284;2022-10-26T01:49:45;5.87;;;4.90;;
15055;SDS011;7626;42.674;23.284;2022-10-26T01:52:13;7.53;;;5.23;;
15055;SDS011;7626;42.674;23.284;2022-10-26T01:54:40;10.30;;;4.63;;
15055;SDS011;7626;42.674;23.284;2022-10-26T01:57:07;9.27;;;5.00;;
15055;SDS011;7626;42.674;23.284;2022-10-26T01:59:37;8.60;;;4.80;;
15055;SDS011;7626;42.674;23.284;2022-10-26T02:02:18;8.97;;;4.60;;
15055;SDS011;7626;42.674;23.284;2022-10-26T02:04:55;5.77;;;4.73;;
15055;SDS011;7626;42.674;23.284;2022-10-26T02:07:27;7.00;;;4.57;;
15055;SDS011;7626;42.674;23.284;2022-10-26T02:09:58;6.87;;;4.40;;
15055;SDS011;7626;42.674;23.284;2022-10-26T02:12:28;9.03;;;4.87;;
15055;SDS011;7626;42.674;23.284;2022-10-26T02:14:59;5.63;;;4.60;;
15055;SDS011;7626;42.674;23.284;2022-10-26T02:17:31;9.23;;;4.77;;
15055;SDS011;7626;42.674;23.284;2022-10-26T02:20:01;7.77;;;4.77;;
15055;SDS011;7626;42.674;23.284;2022-10-26T02:22:28;7.53;;;4.43;;
15055;SDS011;7626;42.674;23.284;2022-10-26T02:24:57;8.40;;;4.80;;
15055;SDS011;7626;42.674;23.284;2022-10-26T02:27:25;11.17;;;5.30;;
15055;SDS011;7626;42.674;23.284;2022-10-26T02:29:53;7.00;;;5.00;;
15055;SDS011;7626;42.674;23.284;2022-10-26T02:32:20;8.40;;;4.90;;
15055;SDS011;7626;42.674;23.284;2022-10-26T02:34:47;9.40;;;5.17;;
15055;SDS011;7626;42.674;23.284;2022-10-26T02:37:17;7.37;;;5.30;;
15055;SDS011;7626;42.674;23.284;2022-10-26T02:39:45;6.73;;;5.03;;
15055;SDS011;7626;42.674;23.284;2022-10-26T02:42:13;7.33;;;5.00;;
15055;SDS011;7626;42.674;23.284;2022-10-26T02:44:41;10.03;;;5.00;;
15055;SDS011;7626;42.674;23.284;2022-10-26T02:47:09;9.83;;;4.80;;
15055;SDS011;7626;42.674;23.284;2022-10-26T02:49:36;9.03;;;5.10;;
15055;SDS011;7626;42.674;23.284;2022-10-26T02:52:03;8.07;;;5.47;;
15055;SDS011;7626;42.674;23.284;2022-10-26T02:54:34;8.80;;;5.20;;
15055;SDS011;7626;42.674;23.284;2022-10-26T02:57:03;6.80;;;5.23;;
15055;SDS011;7626;42.674;23.284;2022-10-26T02:59:33;9.37;;;5.93;;
15055;SDS011;7626;42.674;23.284;2022-10-26T03:02:00;8.43;;;5.80;;
15055;SDS011;7626;42.674;23.284;2022-10-26T03:04:28;8.77;;;6.17;;
15055;SDS011;7626;42.674;23.284;2022-10-26T03:06:55;6.87;;;5.93;;
15055;SDS011;7626;42.674;23.284;2022-10-26T03:09:21;7.57;;;5.83;;
15055;SDS011;7626;42.674;23.284;2022-10-26T03:11:50;8.03;;;6.10;;
15055;SDS011;7626;42.674;23.284;2022-10-26T03:14:17;7.27;;;6.17;;
15055;SDS011;7626;42.674;23.284;2022-10-26T03:16:43;7.20;;;6.03;;
15055;SDS011;7626;42.674;23.284;2022-10-26T03:19:10;7.73;;;5.63;;
15055;SDS011;7626;42.674;23.284;2022-10-26T03:21:36;9.87;;;6.00;;
15055;SDS011;7626;42.674;23.284;2022-10-26T03:24:03;11.13;;;6.57;;
15055;SDS011;7626;42.674;23.284;2022-10-26T03:26:29;8.30;;;6.43;;
15055;SDS011;7626;42.674;23.284;2022-10-26T03:28:57;11.00;;;6.43;;
15055;SDS011;7626;42.674;23.284;2022-10-26T03:31:24;9.53;;;6.17;;
15055;SDS011;7626;42.674;23.284;2022-10-26T03:33:50;7.00;;;6.03;;
15055;SDS011;7626;42.674;23.284;2022-10-26T03:36:17;9.97;;;6.33;;
15055;SDS011;7626;42.674;23.284;2022-10-26T03:38:43;9.70;;;6.53;;
15055;SDS011;7626;42.674;23.284;2022-10-26T03:41:10;7.67;;;6.83;;
15055;SDS011;7626;42.674;23.284;2022-10-26T03:43:36;10.73;;;7.00;;
15055;SDS011;7626;42.674;23.284;2022-10-26T03:46:04;16.07;;;7.10;;
15055;SDS011;7626;42.674;23.284;2022-10-26T03:48:31;11.03;;;7.20;;
15055;SDS011;7626;42.674;23.284;2022-10-26T03:50:57;10.83;;;7.27;;
15055;SDS011;7626;42.674;23.284;2022-10-26T03:53:24;10.60;;;7.27;;
15055;SDS011;7626;42.674;23.284;2022-10-26T03:55:50;9.33;;;7.27;;
15055;SDS011;7626;42.674;23.284;2022-10-26T03:58:17;10.70;;;7.30;;
15055;SDS011;7626;42.674;23.284;2022-10-26T04:00:43;9.63;;;7.17;;
15055;SDS011;7626;42.674;23.284;2022-10-26T04:03:11;9.60;;;6.43;;
15055;SDS011;7626;42.674;23.284;2022-10-26T04:05:38;10.37;;;6.77;;
15055;SDS011;7626;42.674;23.284;2022-10-26T04:08:05;10.00;;;7.40;;
15055;SDS011;7626;42.674;23.284;2022-10-26T04:10:31;12.03;;;7.50;;
15055;SDS011;7626;42.674;23.284;2022-10-26T04:12:58;14.30;;;7.47;;
15055;SDS011;7626;42.674;23.284;2022-10-26T04:15:25;9.93;;;7.10;;
15055;SDS011;7626;42.674;23.284;2022-10-26T04:17:55;10.33;;;7.00;;
15055;SDS011;7626;42.674;23.284;2022-10-26T04:20:23;12.40;;;7.33;;
15055;SDS011;7626;42.674;23.284;2022-10-26T04:22:55;7.47;;;6.40;;
15055;SDS011;7626;42.674;23.284;2022-10-26T04:25:22;10.43;;;7.00;;
15055;SDS011;7626;42.674;23.284;2022-10-26T04:27:48;17.50;;;7.20;;
15055;SDS011;7626;42.674;23.284;2022-10-26T04:30:15;16.83;;;8.20;;
15055;SDS011;7626;42.674;23.284;2022-10-26T04:32:41;12.77;;;6.80;;
15055;SDS011;7626;42.674;23.284;2022-10-26T04:35:08;13.93;;;6.90;;
15055;SDS011;7626;42.674;23.284;2022-10-26T04:37:36;13.33;;;6.57;;
15055;SDS011;7626;42.674;23.284;2022-10-26T04:40:02;10.60;;;6.73;;
15055;SDS011;7626;42.674;23.284;2022-10-26T04:42:29;12.67;;;6.43;;
15055;SDS011;7626;42.674;23.284;2022-10-26T04:44:58;11.60;;;6.77;;
15055;SDS011;7626;42.674;23.284;2022-10-26T04:47:24;11.07;;;6.83;;
15055;SDS011;7626;42.674;23.284;2022-10-26T04:49:51;17.33;;;8.83;;
15055;SDS011;7626;42.674;23.284;2022-10-26T04:52:17;19.17;;;8.17;;
15055;SDS011;7626;42.674;23.284;2022-10-26T04:54:45;12.73;;;6.70;;
15055;SDS011;7626;42.674;23.284;2022-10-26T04:57:11;11.40;;;6.87;;
15055;SDS011;7626;42.674;23.284;2022-10-26T04:59:38;9.80;;;6.67;;
15055;SDS011;7626;42.674;23.284;2022-10-26T05:02:05;15.00;;;6.90;;
15055;SDS011;7626;42.674;23.284;2022-10-26T05:04:31;10.90;;;6.57;;
15055;SDS011;7626;42.674;23.284;2022-10-26T05:06:58;10.43;;;7.00;;
15055;SDS011;7626;42.674;23.284;2022-10-26T05:09:24;12.23;;;6.93;;
15055;SDS011;7626;42.674;23.284;2022-10-26T05:11:52;13.80;;;7.63;;
15055;SDS011;7626;42.674;23.284;2022-10-26T05:14:18;13.03;;;7.23;;
15055;SDS011;7626;42.674;23.284;2022-10-26T05:16:45;12.70;;;7.47;;
15055;SDS011;7626;42.674;23.284;2022-10-26T05:19:11;12.33;;;7.60;;
15055;SDS011;7626;42.674;23.284;2022-10-26T05:21:38;11.97;;;8.00;;
15055;SDS011;7626;42.674;23.284;2022-10-26T05:24:05;16.20;;;8.27;;
15055;SDS011;7626;42.674;23.284;2022-10-26T05:26:31;11.93;;;7.67;;
15055;SDS011;7626;42.674;23.284;2022-10-26T05:28:59;20.63;;;12.30;;
15055;SDS011;7626;42.674;23.284;2022-10-26T05:31:26;16.00;;;10.20;;
15055;SDS011;7626;42.674;23.284;2022-10-26T05:33:52;16.73;;;7.83;;
15055;SDS011;7626;42.674;23.284;2022-10-26T05:36:19;11.83;;;7.70;;
15055;SDS011;7626;42.674;23.284;2022-10-26T05:38:45;12.70;;;6.90;;
15055;SDS011;7626;42.674;23.284;2022-10-26T05:41:12;14.43;;;7.20;;
15055;SDS011;7626;42.674;23.284;2022-10-26T05:43:39;14.47;;;6.87;;
15055;SDS011;7626;42.674;23.284;2022-10-26T05:46:07;11.40;;;7.00;;
15055;SDS011;7626;42.674;23.284;2022-10-26T05:48:33;11.00;;;7.23;;
15055;SDS011;7626;42.674;23.284;2022-10-26T05:51:00;16.90;;;8.17;;
15055;SDS011;7626;42.674;23.284;2022-10-26T05:53:26;22.33;;;8.00;;
15055;SDS011;7626;42.674;23.284;2022-10-26T05:55:53;13.53;;;8.17;;
15055;SDS011;7626;42.674;23.284;2022-10-26T05:58:20;16.77;;;8.07;;
15055;SDS011;7626;42.674;23.284;2022-10-26T06:00:50;14.70;;;8.20;;
15055;SDS011;7626;42.674;23.284;2022-10-26T06:03:24;12.77;;;7.50;;
15055;SDS011;7626;42.674;23.284;2022-10-26T06:05:54;14.53;;;8.43;;
15055;SDS011;7626;42.674;23.284;2022-10-26T06:08:21;11.73;;;7.27;;
15055;SDS011;7626;42.674;23.284;2022-10-26T06:10:48;19.00;;;8.33;;
15055;SDS011;7626;42.674;23.284;2022-10-26T06:13:15;19.13;;;7.93;;
15055;SDS011;7626;42.674;23.284;2022-10-26T06:15:45;15.17;;;8.03;;
15055;SDS011;7626;42.674;23.284;2022-10-26T06:18:13;13.07;;;7.90;;
15055;SDS011;7626;42.674;23.284;2022-10-26T06:20:45;19.03;;;8.57;;
15055;SDS011;7626;42.674;23.284;2022-10-26T06:23:19;16.33;;;8.60;;
15055;SDS011;7626;42.674;23.284;2022-10-26T06:25:54;11.47;;;7.33;;
15055;SDS011;7626;42.674;23.284;2022-10-26T06:28:26;27.23;;;12.00;;
15055;SDS011;7626;42.674;23.284;2022-10-26T06:30:54;21.10;;;9.30;;
15055;SDS011;7626;42.674;23.284;2022-10-26T06:33:22;12.87;;;7.27;;
15055;SDS011;7626;42.674;23.284;2022-10-26T06:35:52;9.20;;;6.97;;
15055;SDS011;7626;42.674;23.284;2022-10-26T06:38:23;11.17;;;7.47;;
15055;SDS011;7626;42.674;23.284;2022-10-26T06:40:54;9.97;;;6.97;;
15055;SDS011;7626;42.674;23.284;2022-10-26T06:43:22;10.23;;;7.07;;
15055;SDS011;7626;42.674;23.284;2022-10-26T06:45:50;11.93;;;7.13;;
15055;SDS011;7626;42.674;23.284;2022-10-26T06:48:19;9.67;;;6.70;;
15055;SDS011;7626;42.674;23.284;2022-10-26T06:50:49;10.67;;;6.20;;
15055;SDS011;7626;42.674;23.284;2022-10-26T06:53:19;10.13;;;6.83;;
15055;SDS011;7626;42.674;23.284;2022-10-26T06:55:47;9.87;;;6.10;;
15055;SDS011;7626;42.674;23.284;2022-10-26T06:58:16;13.73;;;7.17;;
15055;SDS011;7626;42.674;23.284;2022-10-26T07:00:43;20.77;;;7.17;;
15055;SDS011;7626;42.674;23.284;2022-10-26T07:03:10;18.10;;;7.17;;
15055;SDS011;7626;42.674;23.284;2022-10-26T07:05:36;12.10;;;6.20;;
15055;SDS011;7626;42.674;23.284;2022-10-26T07:08:03;15.63;;;6.67;;
15055;SDS011;7626;42.674;23.284;2022-10-26T07:10:31;9.80;;;5.50;;
15055;SDS011;7626;42.674;23.284;2022-10-26T07:12:59;7.43;;;5.53;;
15055;SDS011;7626;42.674;23.284;2022-10-26T07:15:25;10.53;;;5.73;;
15055;SDS011;7626;42.674;23.284;2022-10-26T07:17:52;10.90;;;5.90;;
15055;SDS011;7626;42.674;23.284;2022-10-26T07:20:20;14.90;;;6.20;;
15055;SDS011;7626;42.674;23.284;2022-10-26T07:22:50;9.87;;;6.43;;
15055;SDS011;7626;42.674;23.284;2022-10-26T07:25:16;7.63;;;5.77;;
15055;SDS011;7626;42.674;23.284;2022-10-26T07:27:44;13.17;;;6.03;;
15055;SDS011;7626;42.674;23.284;2022-10-26T07:30:11;13.20;;;7.77;;
15055;SDS011;7626;42.674;23.284;2022-10-26T07:32:38;9.93;;;6.70;;
15055;SDS011;7626;42.674;23.284;2022-10-26T07:35:04;9.93;;;6.57;;
15055;SDS011;7626;42.674;23.284;2022-10-26T07:37:31;6.90;;;5.70;;
15055;SDS011;7626;42.674;23.284;2022-10-26T07:39:57;8.47;;;6.10;;
15055;SDS011;7626;42.674;23.284;2022-10-26T07:42:24;9.13;;;5.63;;
15055;SDS011;7626;42.674;23.284;2022-10-26T07:44:52;7.47;;;5.50;;
15055;SDS011;7626;42.674;23.284;2022-10-26T07:47:18;6.47;;;5.23;;
15055;SDS011;7626;42.674;23.284;2022-10-26T07:49:45;5.68;;;4.95;;
15055;SDS011;7626;42.674;23.284;2022-10-26T07:52:11;7.90;;;5.68;;
15055;SDS011;7626;42.674;23.284;2022-10-26T07:54:38;9.55;;;4.97;;
15055;SDS011;7626;42.674;23.284;2022-10-26T07:57:04;8.65;;;5.60;;
15055;SDS011;7626;42.674;23.284;2022-10-26T07:59:31;17.83;;;6.70;;
15055;SDS011;7626;42.674;23.284;2022-10-26T08:01:59;8.90;;;5.45;;
15055;SDS011;7626;42.674;23.284;2022-10-26T08:04:25;8.07;;;5.00;;
15055;SDS011;7626;42.674;23.284;2022-10-26T08:06:52;14.52;;;5.68;;
15055;SDS011;7626;42.674;23.284;2022-10-26T08:09:18;5.47;;;4.53;;
15055;SDS011;7626;42.674;23.284;2022-10-26T08:11:45;8.45;;;5.30;;
15055;SDS011;7626;42.674;23.284;2022-10-26T08:14:12;7.45;;;5.25;;
15055;SDS011;7626;42.674;23.284;2022-10-26T08:16:38;8.63;;;5.63;;
15055;SDS011;7626;42.674;23.284;2022-10-26T08:19:07;7.65;;;5.00;;
15055;SDS011;7626;42.674;23.284;2022-10-26T08:21:33;9.95;;;5.22;;
15055;SDS011;7626;42.674;23.284;2022-10-26T08:24:00;7.53;;;4.82;;
15055;SDS011;7626;42.674;23.284;2022-10-26T08:26:26;7.97;;;4.57;;
15055;SDS011;7626;42.674;23.284;2022-10-26T08:28:53;7.65;;;5.05;;
15055;SDS011;7626;42.674;23.284;2022-10-26T08:31:19;8.73;;;4.85;;
15055;SDS011;7626;42.674;23.284;2022-10-26T08:33:46;6.93;;;4.85;;
15055;SDS011;7626;42.674;23.284;2022-10-26T08:36:14;6.00;;;4.45;;
15055;SDS011;7626;42.674;23.284;2022-10-26T08:38:45;5.57;;;3.88;;
15055;SDS011;7626;42.674;23.284;2022-10-26T08:41:12;8.65;;;4.53;;
15055;SDS011;7626;42.674;23.284;2022-10-26T08:43:39;9.30;;;4.60;;
15055;SDS011;7626;42.674;23.284;2022-10-26T08:46:07;7.47;;;4.93;;
15055;SDS011;7626;42.674;23.284;2022-10-26T08:48:36;6.60;;;4.60;;
15055;SDS011;7626;42.674;23.284;2022-10-26T08:51:05;8.55;;;4.60;;
15055;SDS011;7626;42.674;23.284;2022-10-26T08:53:35;8.02;;;4.22;;
15055;SDS011;7626;42.674;23.284;2022-10-26T08:56:03;9.70;;;5.40;;
15055;SDS011;7626;42.674;23.284;2022-10-26T08:58:32;8.63;;;5.22;;
15055;SDS011;7626;42.674;23.284;2022-10-26T09:01:02;14.63;;;5.40;;
15055;SDS011;7626;42.674;23.284;2022-10-26T09:03:29;8.30;;;4.90;;
15055;SDS011;7626;42.674;23.284;2022-10-26T09:06:00;9.05;;;4.75;;
15055;SDS011;7626;42.674;23.284;2022-10-26T09:08:30;7.30;;;3.85;;
15055;SDS011;7626;42.674;23.284;2022-10-26T09:11:02;6.75;;;3.72;;
15055;SDS011;7626;42.674;23.284;2022-10-26T09:13:32;5.85;;;3.53;;
15055;SDS011;7626;42.674;23.284;2022-10-26T09:16:04;4.03;;;3.10;;
15055;SDS011;7626;42.674;23.284;2022-10-26T09:18:34;6.13;;;3.83;;
15055;SDS011;7626;42.674;23.284;2022-10-26T09:21:07;6.03;;;3.80;;
15055;SDS011;7626;42.674;23.284;2022-10-26T09:23:40;6.65;;;3.85;;
15055;SDS011;7626;42.674;23.284;2022-10-26T09:26:12;8.00;;;3.65;;
15055;SDS011;7626;42.674;23.284;2022-10-26T09:28:39;8.40;;;3.72;;
15055;SDS011;7626;42.674;23.284;2022-10-26T09:31:08;6.22;;;3.55;;
15055;SDS011;7626;42.674;23.284;2022-10-26T09:33:38;7.70;;;3.80;;
15055;SDS011;7626;42.674;23.284;2022-10-26T09:36:06;5.28;;;3.45;;
15055;SDS011;7626;42.674;23.284;2022-10-26T09:38:34;5.20;;;3.53;;
15055;SDS011;7626;42.674;23.284;2022-10-26T09:41:03;5.07;;;3.15;;
15055;SDS011;7626;42.674;23.284;2022-10-26T09:43:34;5.07;;;3.05;;
15055;SDS011;7626;42.674;23.284;2022-10-26T09:46:03;6.55;;;3.50;;
15055;SDS011;7626;42.674;23.284;2022-10-26T09:48:30;6.40;;;3.10;;
15055;SDS011;7626;42.674;23.284;2022-10-26T09:50:58;6.30;;;2.97;;
15055;SDS011;7626;42.674;23.284;2022-10-26T09:53:25;3.78;;;2.72;;
15055;SDS011;7626;42.674;23.284;2022-10-26T09:55:54;5.95;;;2.83;;
15055;SDS011;7626;42.674;23.284;2022-10-26T09:58:24;5.22;;;2.92;;
15055;SDS011;7626;42.674;23.284;2022-10-26T10:00:54;3.47;;;2.58;;
15055;SDS011;7626;42.674;23.284;2022-10-26T10:03:24;4.30;;;2.40;;
15055;SDS011;7626;42.674;23.284;2022-10-26T10:05:51;3.97;;;2.60;;
15055;SDS011;7626;42.674;23.284;2022-10-26T10:08:19;6.05;;;3.28;;
15055;SDS011;7626;42.674;23.284;2022-10-26T10:10:59;3.72;;;3.05;;
15055;SDS011;7626;42.674;23.284;2022-10-26T10:13:27;7.30;;;3.33;;
15055;SDS011;7626;42.674;23.284;2022-10-26T10:15:56;5.15;;;3.00;;
15055;SDS011;7626;42.674;23.284;2022-10-26T10:18:24;4.85;;;2.95;;
15055;SDS011;7626;42.674;23.284;2022-10-26T10:20:54;4.55;;;3.03;;
15055;SDS011;7626;42.674;23.284;2022-10-26T10:23:25;6.55;;;2.67;;
15055;SDS011;7626;42.674;23.284;2022-10-26T10:28:35;4.28;;;2.70;;
15055;SDS011;7626;42.674;23.284;2022-10-26T10:31:03;5.90;;;2.85;;
15055;SDS011;7626;42.674;23.284;2022-10-26T10:33:34;4.70;;;3.00;;
15055;SDS011;7626;42.674;23.284;2022-10-26T10:36:02;5.28;;;2.85;;
15055;SDS011;7626;42.674;23.284;2022-10-26T10:38:35;9.50;;;4.25;;
15055;SDS011;7626;42.674;23.284;2022-10-26T10:41:02;7.60;;;3.20;;
15055;SDS011;7626;42.674;23.284;2022-10-26T10:43:29;16.67;;;4.05;;
15055;SDS011;7626;42.674;23.284;2022-10-26T10:45:56;8.57;;;3.28;;
15055;SDS011;7626;42.674;23.284;2022-10-26T10:48:25;7.03;;;2.67;;
15055;SDS011;7626;42.674;23.284;2022-10-26T10:50:53;5.78;;;3.47;;
15055;SDS011;7626;42.674;23.284;2022-10-26T10:53:21;5.25;;;3.00;;
15055;SDS011;7626;42.674;23.284;2022-10-26T10:56:06;4.80;;;2.80;;
15055;SDS011;7626;42.674;23.284;2022-10-26T10:58:36;4.05;;;2.92;;
15055;SDS011;7626;42.674;23.284;2022-10-26T11:01:06;4.85;;;2.60;;
15055;SDS011;7626;42.674;23.284;2022-10-26T11:03:40;4.35;;;2.80;;
15055;SDS011;7626;42.674;23.284;2022-10-26T11:06:11;5.95;;;2.67;;
15055;SDS011;7626;42.674;23.284;2022-10-26T11:08:40;7.63;;;2.90;;
15055;SDS011;7626;42.674;23.284;2022-10-26T11:11:09;4.85;;;2.92;;
15055;SDS011;7626;42.674;23.284;2022-10-26T11:13:37;4.93;;;2.58;;
15055;SDS011;7626;42.674;23.284;2022-10-26T11:16:05;3.88;;;3.13;;
15055;SDS011;7626;42.674;23.284;2022-10-26T11:18:35;4.80;;;3.33;;
15055;SDS011;7626;42.674;23.284;2022-10-26T11:21:13;4.18;;;3.38;;
15055;SDS011;7626;42.674;23.284;2022-10-26T11:23:44;4.35;;;2.65;;
15055;SDS011;7626;42.674;23.284;2022-10-26T11:26:12;3.35;;;2.40;;
15055;SDS011;7626;42.674;23.284;2022-10-26T11:28:43;5.28;;;2.20;;
15055;SDS011;7626;42.674;23.284;2022-10-26T11:31:12;3.42;;;2.20;;
15055;SDS011;7626;42.674;23.284;2022-10-26T11:33:41;7.20;;;2.40;;
15055;SDS011;7626;42.674;23.284;2022-10-26T11:36:10;1.73;;;1.58;;
15055;SDS011;7626;42.674;23.284;2022-10-26T11:38:39;3.30;;;2.00;;
15055;SDS011;7626;42.674;23.284;2022-10-26T11:41:09;4.68;;;1.95;;
15055;SDS011;7626;42.674;23.284;2022-10-26T11:43:37;79.57;;;8.60;;
15055;SDS011;7626;42.674;23.284;2022-10-26T11:46:05;9.43;;;3.25;;
15055;SDS011;7626;42.674;23.284;2022-10-26T11:48:35;6.32;;;4.05;;
15055;SDS011;7626;42.674;23.284;2022-10-26T11:51:02;4.65;;;3.30;;
15055;SDS011;7626;42.674;23.284;2022-10-26T11:53:34;6.05;;;4.03;;
15055;SDS011;7626;42.674;23.284;2022-10-26T11:56:02;6.05;;;2.80;;
15055;SDS011;7626;42.674;23.284;2022-10-26T11:58:29;3.25;;;2.20;;
15055;SDS011;7626;42.674;23.284;2022-10-26T12:00:59;3.55;;;1.90;;
15055;SDS011;7626;42.674;23.284;2022-10-26T12:03:27;3.85;;;1.90;;
15055;SDS011;7626;42.674;23.284;2022-10-26T12:05:54;3.25;;;1.63;;
15055;SDS011;7626;42.674;23.284;2022-10-26T12:08:22;3.53;;;1.52;;
15055;SDS011;7626;42.674;23.284;2022-10-26T12:10:51;3.78;;;1.50;;
15055;SDS011;7626;42.674;23.284;2022-10-26T12:13:23;3.05;;;1.50;;
15055;SDS011;7626;42.674;23.284;2022-10-26T12:15:53;5.88;;;1.70;;
15055;SDS011;7626;42.674;23.284;2022-10-26T12:18:23;37.08;;;4.88;;
15055;SDS011;7626;42.674;23.284;2022-10-26T12:20:52;7.10;;;1.80;;
15055;SDS011;7626;42.674;23.284;2022-10-26T12:23:19;13.00;;;1.88;;
15055;SDS011;7626;42.674;23.284;2022-10-26T12:25:47;15.60;;;2.22;;
15055;SDS011;7626;42.674;23.284;2022-10-26T12:33:53;3.30;;;2.60;;
15055;SDS011;7626;42.674;23.284;2022-10-26T12:39:15;3.45;;;2.25;;
15055;SDS011;7626;42.674;23.284;2022-10-26T12:41:54;4.20;;;2.00;;
15055;SDS011;7626;42.674;23.284;2022-10-26T12:44:31;4.03;;;2.35;;
15055;SDS011;7626;42.674;23.284;2022-10-26T12:46:57;7.93;;;2.22;;
15055;SDS011;7626;42.674;23.284;2022-10-26T12:52:20;4.38;;;1.80;;
15055;SDS011;7626;42.674;23.284;2022-10-26T12:54:55;3.63;;;1.70;;
15055;SDS011;7626;42.674;23.284;2022-10-26T12:57:29;2.75;;;1.70;;
15055;SDS011;7626;42.674;23.284;2022-10-26T12:59:59;4.00;;;1.77;;
15055;SDS011;7626;42.674;23.284;2022-10-26T13:02:33;2.17;;;1.77;;
15055;SDS011;7626;42.674;23.284;2022-10-26T13:05:25;1.77;;;1.50;;
15055;SDS011;7626;42.674;23.284;2022-10-26T13:08:01;4.65;;;1.55;;
15055;SDS011;7626;42.674;23.284;2022-10-26T13:10:28;2.83;;;1.40;;
15055;SDS011;7626;42.674;23.284;2022-10-26T13:12:55;2.33;;;1.02;;
15055;SDS011;7626;42.674;23.284;2022-10-26T13:15:23;6.80;;;1.75;;
15055;SDS011;7626;42.674;23.284;2022-10-26T13:17:55;2.75;;;1.40;;
15055;SDS011;7626;42.674;23.284;2022-10-26T13:20:23;5.35;;;2.45;;
15055;SDS011;7626;42.674;23.284;2022-10-26T13:22:49;4.45;;;1.70;;
15055;SDS011;7626;42.674;23.284;2022-10-26T13:25:20;2.08;;;1.30;;
15055;SDS011;7626;42.674;23.284;2022-10-26T13:27:56;3.63;;;1.80;;
15055;SDS011;7626;42.674;23.284;2022-10-26T13:33:07;3.80;;;1.23;;
15055;SDS011;7626;42.674;23.284;2022-10-26T13:35:38;4.10;;;1.30;;
15055;SDS011;7626;42.674;23.284;2022-10-26T13:38:06;3.30;;;1.20;;
15055;SDS011;7626;42.674;23.284;2022-10-26T13:40:35;3.45;;;1.42;;
15055;SDS011;7626;42.674;23.284;2022-10-26T13:43:03;5.07;;;1.60;;
15055;SDS011;7626;42.674;23.284;2022-10-26T13:45:31;4.80;;;2.20;;
15055;SDS011;7626;42.674;23.284;2022-10-26T13:48:00;5.07;;;2.03;;
15055;SDS011;7626;42.674;23.284;2022-10-26T13:50:30;4.72;;;1.95;;
15055;SDS011;7626;42.674;23.284;2022-10-26T13:52:58;2.58;;;1.67;;
15055;SDS011;7626;42.674;23.284;2022-10-26T13:55:27;2.47;;;1.77;;
15055;SDS011;7626;42.674;23.284;2022-10-26T13:58:02;5.18;;;1.80;;
15055;SDS011;7626;42.674;23.284;2022-10-26T14:00:31;2.97;;;1.70;;
15055;SDS011;7626;42.674;23.284;2022-10-26T14:02:57;3.40;;;1.50;;
15055;SDS011;7626;42.674;23.284;2022-10-26T14:05:24;3.17;;;1.60;;
15055;SDS011;7626;42.674;23.284;2022-10-26T14:07:51;6.28;;;1.70;;
15055;SDS011;7626;42.674;23.284;2022-10-26T14:10:22;4.97;;;1.60;;
15055;SDS011;7626;42.674;23.284;2022-10-26T14:12:50;2.58;;;1.50;;
15055;SDS011;7626;42.674;23.284;2022-10-26T14:15:21;5.28;;;1.75;;
15055;SDS011;7626;42.674;23.284;2022-10-26T14:17:48;4.15;;;1.80;;
15055;SDS011;7626;42.674;23.284;2022-10-26T14:20:15;3.50;;;1.77;;
15055;SDS011;7626;42.674;23.284;2022-10-26T14:22:42;6.43;;;1.90;;
15055;SDS011;7626;42.674;23.284;2022-10-26T14:25:16;7.28;;;2.53;;
15055;SDS011;7626;42.674;23.284;2022-10-26T14:27:43;6.68;;;2.20;;
15055;SDS011;7626;42.674;23.284;2022-10-26T14:30:20;5.03;;;2.22;;
15055;SDS011;7626;42.674;23.284;2022-10-26T14:32:47;5.32;;;2.58;;
15055;SDS011;7626;42.674;23.284;2022-10-26T14:35:14;6.20;;;2.33;;
15055;SDS011;7626;42.674;23.284;2022-10-26T14:37:42;4.82;;;1.90;;
15055;SDS011;7626;42.674;23.284;2022-10-26T14:40:12;3.45;;;2.20;;
15055;SDS011;7626;42.674;23.284;2022-10-26T14:42:40;3.88;;;2.15;;
15055;SDS011;7626;42.674;23.284;2022-10-26T14:45:20;4.03;;;2.00;;
15055;SDS011;7626;42.674;23.284;2022-10-26T14:47:47;4.10;;;2.40;;
15055;SDS011;7626;42.674;23.284;2022-10-26T14:50:17;7.32;;;2.13;;
15055;SDS011;7626;42.674;23.284;2022-10-26T14:52:48;5.43;;;2.38;;
15055;SDS011;7626;42.674;23.284;2022-10-26T14:55:15;5.88;;;2.35;;
15055;SDS011;7626;42.674;23.284;2022-10-26T14:57:42;5.35;;;2.55;;
15055;SDS011;7626;42.674;23.284;2022-10-26T15:00:12;6.07;;;2.30;;
15055;SDS011;7626;42.674;23.284;2022-10-26T15:02:41;7.85;;;2.80;;
15055;SDS011;7626;42.674;23.284;2022-10-26T15:05:16;6.25;;;2.58;;
15055;SDS011;7626;42.674;23.284;2022-10-26T15:07:43;17.40;;;3.00;;